sensor_id;sensor_type;location;lat;lon;timestamp;P1;durP1;ratioP1;P2;durP2;ratioP2
24833;SDS011;12914;43.702;22.862;2022-08-19T00:01:49;4.47;;;4.07;;
24833;SDS011;12914;43.702;22.862;2022-08-19T00:04:16;7.32;;;3.90;;
24833;SDS011;12914;43.702;22.862;2022-08-19T00:06:44;6.75;;;4.25;;
24833;SDS011;12914;43.702;22.862;2022-08-19T00:09:12;5.97;;;4.63;;
24833;SDS011;12914;43.702;22.862;2022-08-19T00:11:39;5.53;;;4.50;;
24833;SDS011;12914;43.702;22.862;2022-08-19T00:14:06;5.07;;;4.50;;
24833;SDS011;12914;43.702;22.862;2022-08-19T00:16:35;5.47;;;4.65;;
24833;SDS011;12914;43.702;22.862;2022-08-19T00:19:04;7.93;;;4.60;;
24833;SDS011;12914;43.702;22.862;2022-08-19T00:21:30;7.80;;;4.68;;
24833;SDS011;12914;43.702;22.862;2022-08-19T00:23:56;9.05;;;4.50;;
24833;SDS011;12914;43.702;22.862;2022-08-19T00:26:23;5.30;;;4.70;;
24833;SDS011;12914;43.702;22.862;2022-08-19T00:28:50;8.98;;;4.30;;
24833;SDS011;12914;43.702;22.862;2022-08-19T00:31:16;5.45;;;4.55;;
24833;SDS011;12914;43.702;22.862;2022-08-19T00:33:42;5.20;;;4.45;;
24833;SDS011;12914;43.702;22.862;2022-08-19T00:36:08;5.43;;;4.68;;
24833;SDS011;12914;43.702;22.862;2022-08-19T00:38:36;6.22;;;4.57;;
24833;SDS011;12914;43.702;22.862;2022-08-19T00:41:05;5.45;;;4.95;;
24833;SDS011;12914;43.702;22.862;2022-08-19T00:43:32;5.18;;;4.68;;
24833;SDS011;12914;43.702;22.862;2022-08-19T00:45:58;6.00;;;4.65;;
24833;SDS011;12914;43.702;22.862;2022-08-19T00:48:24;5.70;;;5.10;;
24833;SDS011;12914;43.702;22.862;2022-08-19T00:50:50;7.50;;;5.68;;
24833;SDS011;12914;43.702;22.862;2022-08-19T00:53:19;8.23;;;5.18;;
24833;SDS011;12914;43.702;22.862;2022-08-19T00:55:47;7.60;;;4.95;;
24833;SDS011;12914;43.702;22.862;2022-08-19T00:58:17;6.32;;;4.85;;
24833;SDS011;12914;43.702;22.862;2022-08-19T01:00:44;6.15;;;4.82;;
24833;SDS011;12914;43.702;22.862;2022-08-19T01:03:12;8.15;;;4.97;;
24833;SDS011;12914;43.702;22.862;2022-08-19T01:05:41;7.05;;;5.00;;
24833;SDS011;12914;43.702;22.862;2022-08-19T01:08:08;8.32;;;5.00;;
24833;SDS011;12914;43.702;22.862;2022-08-19T01:10:38;5.85;;;4.43;;
24833;SDS011;12914;43.702;22.862;2022-08-19T01:15:56;5.13;;;4.60;;
24833;SDS011;12914;43.702;22.862;2022-08-19T01:18:25;6.93;;;4.95;;
24833;SDS011;12914;43.702;22.862;2022-08-19T01:20:53;6.97;;;4.90;;
24833;SDS011;12914;43.702;22.862;2022-08-19T01:23:21;9.32;;;5.55;;
24833;SDS011;12914;43.702;22.862;2022-08-19T01:26:06;8.55;;;4.82;;
24833;SDS011;12914;43.702;22.862;2022-08-19T01:28:32;8.98;;;4.95;;
24833;SDS011;12914;43.702;22.862;2022-08-19T01:30:58;7.07;;;4.70;;
24833;SDS011;12914;43.702;22.862;2022-08-19T01:33:23;6.70;;;4.75;;
24833;SDS011;12914;43.702;22.862;2022-08-19T01:35:49;5.63;;;5.07;;
24833;SDS011;12914;43.702;22.862;2022-08-19T01:38:24;8.32;;;5.32;;
24833;SDS011;12914;43.702;22.862;2022-08-19T01:40:51;6.93;;;5.20;;
24833;SDS011;12914;43.702;22.862;2022-08-19T01:43:17;6.65;;;4.50;;
24833;SDS011;12914;43.702;22.862;2022-08-19T01:45:44;6.22;;;4.97;;
24833;SDS011;12914;43.702;22.862;2022-08-19T01:48:10;5.78;;;5.03;;
24833;SDS011;12914;43.702;22.862;2022-08-19T01:50:37;5.60;;;5.10;;
24833;SDS011;12914;43.702;22.862;2022-08-19T01:53:04;5.78;;;5.13;;
24833;SDS011;12914;43.702;22.862;2022-08-19T01:55:32;5.70;;;5.13;;
24833;SDS011;12914;43.702;22.862;2022-08-19T01:58:01;6.68;;;4.88;;
24833;SDS011;12914;43.702;22.862;2022-08-19T02:00:30;4.95;;;4.45;;
24833;SDS011;12914;43.702;22.862;2022-08-19T02:02:57;7.00;;;4.68;;
24833;SDS011;12914;43.702;22.862;2022-08-19T02:05:23;6.07;;;4.55;;
24833;SDS011;12914;43.702;22.862;2022-08-19T02:07:49;5.10;;;4.60;;
24833;SDS011;12914;43.702;22.862;2022-08-19T02:10:17;5.95;;;5.22;;
24833;SDS011;12914;43.702;22.862;2022-08-19T02:12:46;6.25;;;5.60;;
24833;SDS011;12914;43.702;22.862;2022-08-19T02:15:12;10.00;;;5.32;;
24833;SDS011;12914;43.702;22.862;2022-08-19T02:17:38;6.80;;;4.90;;
24833;SDS011;12914;43.702;22.862;2022-08-19T02:20:05;5.53;;;4.78;;
24833;SDS011;12914;43.702;22.862;2022-08-19T02:22:32;6.00;;;4.72;;
24833;SDS011;12914;43.702;22.862;2022-08-19T02:24:58;7.63;;;5.20;;
24833;SDS011;12914;43.702;22.862;2022-08-19T02:27:24;4.78;;;4.30;;
24833;SDS011;12914;43.702;22.862;2022-08-19T02:29:51;7.38;;;5.13;;
24833;SDS011;12914;43.702;22.862;2022-08-19T02:32:17;5.70;;;4.70;;
24833;SDS011;12914;43.702;22.862;2022-08-19T02:34:46;7.30;;;6.60;;
24833;SDS011;12914;43.702;22.862;2022-08-19T02:37:12;8.00;;;6.05;;
24833;SDS011;12914;43.702;22.862;2022-08-19T02:39:57;7.47;;;5.60;;
24833;SDS011;12914;43.702;22.862;2022-08-19T02:42:23;6.18;;;5.53;;
24833;SDS011;12914;43.702;22.862;2022-08-19T02:44:48;7.07;;;5.88;;
24833;SDS011;12914;43.702;22.862;2022-08-19T02:47:14;7.10;;;6.13;;
24833;SDS011;12914;43.702;22.862;2022-08-19T02:49:40;7.20;;;6.05;;
24833;SDS011;12914;43.702;22.862;2022-08-19T02:52:06;6.72;;;5.72;;
24833;SDS011;12914;43.702;22.862;2022-08-19T02:54:31;8.68;;;5.97;;
24833;SDS011;12914;43.702;22.862;2022-08-19T02:56:57;6.97;;;6.07;;
24833;SDS011;12914;43.702;22.862;2022-08-19T02:59:23;8.05;;;6.07;;
24833;SDS011;12914;43.702;22.862;2022-08-19T03:01:50;6.70;;;6.10;;
24833;SDS011;12914;43.702;22.862;2022-08-19T03:04:16;8.00;;;7.28;;
24833;SDS011;12914;43.702;22.862;2022-08-19T03:06:42;8.88;;;7.25;;
24833;SDS011;12914;43.702;22.862;2022-08-19T03:09:10;8.20;;;7.35;;
24833;SDS011;12914;43.702;22.862;2022-08-19T03:11:37;9.43;;;6.40;;
24833;SDS011;12914;43.702;22.862;2022-08-19T03:14:03;7.65;;;6.38;;
24833;SDS011;12914;43.702;22.862;2022-08-19T03:16:33;7.22;;;6.32;;
24833;SDS011;12914;43.702;22.862;2022-08-19T03:19:04;9.60;;;6.45;;
24833;SDS011;12914;43.702;22.862;2022-08-19T03:21:31;8.98;;;6.72;;
24833;SDS011;12914;43.702;22.862;2022-08-19T03:23:59;6.45;;;5.85;;
24833;SDS011;12914;43.702;22.862;2022-08-19T03:26:28;8.02;;;6.85;;
24833;SDS011;12914;43.702;22.862;2022-08-19T03:28:54;7.43;;;6.72;;
24833;SDS011;12914;43.702;22.862;2022-08-19T03:31:21;7.57;;;6.22;;
24833;SDS011;12914;43.702;22.862;2022-08-19T03:33:48;6.85;;;6.22;;
24833;SDS011;12914;43.702;22.862;2022-08-19T03:36:17;7.88;;;6.88;;
24833;SDS011;12914;43.702;22.862;2022-08-19T03:41:14;10.38;;;7.50;;
24833;SDS011;12914;43.702;22.862;2022-08-19T03:43:42;7.60;;;6.90;;
24833;SDS011;12914;43.702;22.862;2022-08-19T03:46:09;9.73;;;7.43;;
24833;SDS011;12914;43.702;22.862;2022-08-19T03:48:37;9.40;;;7.75;;
24833;SDS011;12914;43.702;22.862;2022-08-19T03:51:06;8.10;;;7.30;;
24833;SDS011;12914;43.702;22.862;2022-08-19T03:53:33;8.85;;;7.55;;
24833;SDS011;12914;43.702;22.862;2022-08-19T03:56:00;11.27;;;7.32;;
24833;SDS011;12914;43.702;22.862;2022-08-19T03:58:26;9.48;;;6.82;;
24833;SDS011;12914;43.702;22.862;2022-08-19T04:00:53;6.90;;;6.05;;
24833;SDS011;12914;43.702;22.862;2022-08-19T04:03:20;7.53;;;6.07;;
24833;SDS011;12914;43.702;22.862;2022-08-19T04:05:46;9.45;;;6.38;;
24833;SDS011;12914;43.702;22.862;2022-08-19T04:08:11;7.20;;;5.78;;
24833;SDS011;12914;43.702;22.862;2022-08-19T04:10:38;6.78;;;5.70;;
24833;SDS011;12914;43.702;22.862;2022-08-19T04:13:05;9.38;;;6.53;;
24833;SDS011;12914;43.702;22.862;2022-08-19T04:15:32;7.47;;;6.45;;
24833;SDS011;12914;43.702;22.862;2022-08-19T04:18:04;8.60;;;6.72;;
24833;SDS011;12914;43.702;22.862;2022-08-19T04:20:33;6.88;;;6.10;;
24833;SDS011;12914;43.702;22.862;2022-08-19T04:23:03;8.40;;;6.43;;
24833;SDS011;12914;43.702;22.862;2022-08-19T04:25:34;8.85;;;6.53;;
24833;SDS011;12914;43.702;22.862;2022-08-19T04:28:05;6.50;;;5.60;;
24833;SDS011;12914;43.702;22.862;2022-08-19T04:30:36;7.90;;;6.25;;
24833;SDS011;12914;43.702;22.862;2022-08-19T04:33:04;7.30;;;6.30;;
24833;SDS011;12914;43.702;22.862;2022-08-19T04:35:34;8.13;;;6.82;;
24833;SDS011;12914;43.702;22.862;2022-08-19T04:38:01;6.85;;;6.18;;
24833;SDS011;12914;43.702;22.862;2022-08-19T04:40:27;8.82;;;6.72;;
24833;SDS011;12914;43.702;22.862;2022-08-19T04:43:11;7.80;;;6.10;;
24833;SDS011;12914;43.702;22.862;2022-08-19T04:45:38;7.45;;;6.38;;
24833;SDS011;12914;43.702;22.862;2022-08-19T04:48:04;7.57;;;6.82;;
24833;SDS011;12914;43.702;22.862;2022-08-19T04:50:30;9.35;;;6.47;;
24833;SDS011;12914;43.702;22.862;2022-08-19T04:52:55;8.70;;;7.10;;
24833;SDS011;12914;43.702;22.862;2022-08-19T04:55:21;8.93;;;7.05;;
24833;SDS011;12914;43.702;22.862;2022-08-19T04:57:47;11.30;;;7.25;;
24833;SDS011;12914;43.702;22.862;2022-08-19T05:00:12;7.82;;;6.57;;
24833;SDS011;12914;43.702;22.862;2022-08-19T05:02:38;9.93;;;6.82;;
24833;SDS011;12914;43.702;22.862;2022-08-19T05:05:04;10.20;;;6.65;;
24833;SDS011;12914;43.702;22.862;2022-08-19T05:07:31;7.68;;;6.90;;
24833;SDS011;12914;43.702;22.862;2022-08-19T05:09:56;8.80;;;7.75;;
24833;SDS011;12914;43.702;22.862;2022-08-19T05:12:22;7.93;;;7.20;;
24833;SDS011;12914;43.702;22.862;2022-08-19T05:14:48;6.80;;;6.10;;
24833;SDS011;12914;43.702;22.862;2022-08-19T05:17:14;10.40;;;7.32;;
24833;SDS011;12914;43.702;22.862;2022-08-19T05:19:41;8.50;;;7.40;;
24833;SDS011;12914;43.702;22.862;2022-08-19T05:22:25;7.65;;;6.75;;
24833;SDS011;12914;43.702;22.862;2022-08-19T05:25:06;9.70;;;6.75;;
24833;SDS011;12914;43.702;22.862;2022-08-19T05:27:33;7.43;;;6.63;;
24833;SDS011;12914;43.702;22.862;2022-08-19T05:29:59;7.25;;;6.43;;
24833;SDS011;12914;43.702;22.862;2022-08-19T05:32:26;7.03;;;6.30;;
24833;SDS011;12914;43.702;22.862;2022-08-19T05:34:52;7.35;;;5.78;;
24833;SDS011;12914;43.702;22.862;2022-08-19T05:37:18;8.50;;;6.63;;
24833;SDS011;12914;43.702;22.862;2022-08-19T05:39:43;13.48;;;7.13;;
24833;SDS011;12914;43.702;22.862;2022-08-19T05:42:09;10.13;;;7.10;;
24833;SDS011;12914;43.702;22.862;2022-08-19T05:44:37;7.85;;;7.05;;
24833;SDS011;12914;43.702;22.862;2022-08-19T05:47:08;8.40;;;7.03;;
24833;SDS011;12914;43.702;22.862;2022-08-19T05:49:34;10.70;;;7.60;;
24833;SDS011;12914;43.702;22.862;2022-08-19T05:52:04;10.13;;;7.78;;
24833;SDS011;12914;43.702;22.862;2022-08-19T05:54:32;12.43;;;7.65;;
24833;SDS011;12914;43.702;22.862;2022-08-19T05:57:00;10.00;;;7.20;;
24833;SDS011;12914;43.702;22.862;2022-08-19T05:59:26;8.98;;;7.90;;
24833;SDS011;12914;43.702;22.862;2022-08-19T06:01:52;9.30;;;8.35;;
24833;SDS011;12914;43.702;22.862;2022-08-19T06:04:21;11.93;;;8.80;;
24833;SDS011;12914;43.702;22.862;2022-08-19T06:06:48;10.35;;;7.50;;
24833;SDS011;12914;43.702;22.862;2022-08-19T06:09:16;11.23;;;8.88;;
24833;SDS011;12914;43.702;22.862;2022-08-19T06:11:44;10.25;;;8.32;;
24833;SDS011;12914;43.702;22.862;2022-08-19T06:14:13;9.15;;;7.93;;
24833;SDS011;12914;43.702;22.862;2022-08-19T06:16:41;8.90;;;7.25;;
24833;SDS011;12914;43.702;22.862;2022-08-19T06:19:08;9.63;;;8.07;;
24833;SDS011;12914;43.702;22.862;2022-08-19T06:21:36;9.10;;;8.20;;
24833;SDS011;12914;43.702;22.862;2022-08-19T06:24:04;11.68;;;8.40;;
24833;SDS011;12914;43.702;22.862;2022-08-19T06:26:31;9.20;;;7.65;;
24833;SDS011;12914;43.702;22.862;2022-08-19T06:28:58;14.85;;;8.98;;
24833;SDS011;12914;43.702;22.862;2022-08-19T06:31:24;10.93;;;7.45;;
24833;SDS011;12914;43.702;22.862;2022-08-19T06:33:51;10.85;;;8.55;;
24833;SDS011;12914;43.702;22.862;2022-08-19T06:36:19;9.88;;;8.55;;
24833;SDS011;12914;43.702;22.862;2022-08-19T06:38:46;8.63;;;7.82;;
24833;SDS011;12914;43.702;22.862;2022-08-19T06:41:12;15.85;;;8.73;;
24833;SDS011;12914;43.702;22.862;2022-08-19T06:43:38;10.02;;;7.70;;
24833;SDS011;12914;43.702;22.862;2022-08-19T06:46:03;9.35;;;7.70;;
24833;SDS011;12914;43.702;22.862;2022-08-19T06:48:35;10.07;;;8.60;;
24833;SDS011;12914;43.702;22.862;2022-08-19T06:51:01;9.65;;;8.02;;
24833;SDS011;12914;43.702;22.862;2022-08-19T06:53:28;14.93;;;8.40;;
24833;SDS011;12914;43.702;22.862;2022-08-19T06:55:54;9.88;;;8.23;;
24833;SDS011;12914;43.702;22.862;2022-08-19T06:58:27;9.93;;;8.05;;
24833;SDS011;12914;43.702;22.862;2022-08-19T07:01:01;10.25;;;8.65;;
24833;SDS011;12914;43.702;22.862;2022-08-19T07:03:31;9.57;;;8.60;;
24833;SDS011;12914;43.702;22.862;2022-08-19T07:08:40;10.68;;;8.15;;
24833;SDS011;12914;43.702;22.862;2022-08-19T07:11:08;9.88;;;7.68;;
24833;SDS011;12914;43.702;22.862;2022-08-19T07:13:35;10.25;;;8.13;;
24833;SDS011;12914;43.702;22.862;2022-08-19T07:16:08;8.68;;;7.80;;
24833;SDS011;12914;43.702;22.862;2022-08-19T07:18:37;9.57;;;8.57;;
24833;SDS011;12914;43.702;22.862;2022-08-19T07:21:07;11.40;;;8.07;;
24833;SDS011;12914;43.702;22.862;2022-08-19T07:23:35;10.35;;;8.63;;
24833;SDS011;12914;43.702;22.862;2022-08-19T07:26:05;10.23;;;8.48;;
24833;SDS011;12914;43.702;22.862;2022-08-19T07:28:36;9.57;;;8.40;;
24833;SDS011;12914;43.702;22.862;2022-08-19T07:31:06;12.10;;;7.80;;
24833;SDS011;12914;43.702;22.862;2022-08-19T07:33:32;10.32;;;8.60;;
24833;SDS011;12914;43.702;22.862;2022-08-19T07:36:00;9.35;;;8.38;;
24833;SDS011;12914;43.702;22.862;2022-08-19T07:38:26;13.55;;;7.88;;
24833;SDS011;12914;43.702;22.862;2022-08-19T07:40:52;12.30;;;8.18;;
24833;SDS011;12914;43.702;22.862;2022-08-19T07:43:18;10.35;;;8.82;;
24833;SDS011;12914;43.702;22.862;2022-08-19T07:45:45;9.25;;;8.32;;
24833;SDS011;12914;43.702;22.862;2022-08-19T07:48:12;10.90;;;8.15;;
24833;SDS011;12914;43.702;22.862;2022-08-19T07:50:37;11.07;;;8.93;;
24833;SDS011;12914;43.702;22.862;2022-08-19T07:53:03;12.45;;;8.07;;
24833;SDS011;12914;43.702;22.862;2022-08-19T07:55:29;13.40;;;8.07;;
24833;SDS011;12914;43.702;22.862;2022-08-19T07:57:55;9.13;;;8.23;;
24833;SDS011;12914;43.702;22.862;2022-08-19T08:00:21;9.73;;;8.73;;
24833;SDS011;12914;43.702;22.862;2022-08-19T08:02:47;9.88;;;8.88;;
24833;SDS011;12914;43.702;22.862;2022-08-19T08:05:12;9.63;;;8.73;;
24833;SDS011;12914;43.702;22.862;2022-08-19T08:08:04;9.32;;;8.43;;
24833;SDS011;12914;43.702;22.862;2022-08-19T08:10:48;10.73;;;7.63;;
24833;SDS011;12914;43.702;22.862;2022-08-19T08:13:15;11.80;;;8.07;;
24833;SDS011;12914;43.702;22.862;2022-08-19T08:15:41;9.68;;;8.68;;
24833;SDS011;12914;43.702;22.862;2022-08-19T08:18:07;10.27;;;8.65;;
24833;SDS011;12914;43.702;22.862;2022-08-19T08:20:33;13.13;;;8.75;;
24833;SDS011;12914;43.702;22.862;2022-08-19T08:22:58;10.68;;;8.38;;
24833;SDS011;12914;43.702;22.862;2022-08-19T08:25:42;10.40;;;7.97;;
24833;SDS011;12914;43.702;22.862;2022-08-19T08:28:08;10.15;;;8.27;;
24833;SDS011;12914;43.702;22.862;2022-08-19T08:30:35;8.80;;;7.90;;
24833;SDS011;12914;43.702;22.862;2022-08-19T08:33:01;11.00;;;8.00;;
24833;SDS011;12914;43.702;22.862;2022-08-19T08:35:27;11.70;;;8.80;;
24833;SDS011;12914;43.702;22.862;2022-08-19T08:37:54;12.32;;;9.45;;
24833;SDS011;12914;43.702;22.862;2022-08-19T08:40:27;10.50;;;9.05;;
24833;SDS011;12914;43.702;22.862;2022-08-19T08:45:30;12.93;;;8.90;;
24833;SDS011;12914;43.702;22.862;2022-08-19T08:48:02;8.75;;;7.95;;
24833;SDS011;12914;43.702;22.862;2022-08-19T08:50:38;12.02;;;9.45;;
24833;SDS011;12914;43.702;22.862;2022-08-19T08:53:08;10.50;;;9.20;;
24833;SDS011;12914;43.702;22.862;2022-08-19T08:55:36;9.93;;;8.93;;
24833;SDS011;12914;43.702;22.862;2022-08-19T08:58:06;9.80;;;8.90;;
24833;SDS011;12914;43.702;22.862;2022-08-19T09:00:39;10.45;;;8.52;;
24833;SDS011;12914;43.702;22.862;2022-08-19T09:03:29;11.63;;;8.07;;
24833;SDS011;12914;43.702;22.862;2022-08-19T09:08:52;10.80;;;8.10;;
24833;SDS011;12914;43.702;22.862;2022-08-19T09:17:26;9.43;;;8.52;;
24833;SDS011;12914;43.702;22.862;2022-08-19T09:19:57;9.85;;;8.85;;
24833;SDS011;12914;43.702;22.862;2022-08-19T09:22:29;8.80;;;8.00;;
24833;SDS011;12914;43.702;22.862;2022-08-19T09:24:54;12.32;;;8.55;;
24833;SDS011;12914;43.702;22.862;2022-08-19T09:27:21;11.68;;;8.45;;
24833;SDS011;12914;43.702;22.862;2022-08-19T09:29:49;9.02;;;8.13;;
24833;SDS011;12914;43.702;22.862;2022-08-19T09:32:15;9.00;;;8.10;;
24833;SDS011;12914;43.702;22.862;2022-08-19T09:34:42;9.57;;;8.52;;
24833;SDS011;12914;43.702;22.862;2022-08-19T09:37:08;8.25;;;7.45;;
24833;SDS011;12914;43.702;22.862;2022-08-19T09:39:34;13.50;;;8.95;;
24833;SDS011;12914;43.702;22.862;2022-08-19T09:41:59;9.18;;;8.20;;
24833;SDS011;12914;43.702;22.862;2022-08-19T09:44:25;10.52;;;8.50;;
24833;SDS011;12914;43.702;22.862;2022-08-19T09:46:50;8.93;;;8.07;;
24833;SDS011;12914;43.702;22.862;2022-08-19T09:49:17;9.50;;;8.32;;
24833;SDS011;12914;43.702;22.862;2022-08-19T09:51:43;12.05;;;8.52;;
24833;SDS011;12914;43.702;22.862;2022-08-19T09:54:09;8.77;;;7.88;;
24833;SDS011;12914;43.702;22.862;2022-08-19T09:56:35;12.25;;;8.70;;
24833;SDS011;12914;43.702;22.862;2022-08-19T09:59:01;8.75;;;7.75;;
24833;SDS011;12914;43.702;22.862;2022-08-19T10:01:29;10.43;;;7.20;;
24833;SDS011;12914;43.702;22.862;2022-08-19T10:03:56;8.70;;;7.80;;
24833;SDS011;12914;43.702;22.862;2022-08-19T10:06:24;8.77;;;7.85;;
24833;SDS011;12914;43.702;22.862;2022-08-19T10:08:55;8.02;;;7.28;;
24833;SDS011;12914;43.702;22.862;2022-08-19T10:11:21;8.35;;;7.57;;
24833;SDS011;12914;43.702;22.862;2022-08-19T10:13:46;7.80;;;7.10;;
24833;SDS011;12914;43.702;22.862;2022-08-19T10:16:18;8.60;;;7.65;;
24833;SDS011;12914;43.702;22.862;2022-08-19T10:18:48;8.43;;;7.63;;
24833;SDS011;12914;43.702;22.862;2022-08-19T10:21:24;9.68;;;7.25;;
24833;SDS011;12914;43.702;22.862;2022-08-19T10:23:52;10.73;;;7.72;;
24833;SDS011;12914;43.702;22.862;2022-08-19T10:26:25;7.70;;;7.00;;
24833;SDS011;12914;43.702;22.862;2022-08-19T10:28:53;9.40;;;7.43;;
24833;SDS011;12914;43.702;22.862;2022-08-19T10:31:21;9.63;;;7.20;;
24833;SDS011;12914;43.702;22.862;2022-08-19T10:33:50;7.97;;;6.97;;
24833;SDS011;12914;43.702;22.862;2022-08-19T10:36:22;10.98;;;7.63;;
24833;SDS011;12914;43.702;22.862;2022-08-19T10:38:54;11.52;;;7.13;;
24833;SDS011;12914;43.702;22.862;2022-08-19T10:41:24;8.73;;;7.25;;
24833;SDS011;12914;43.702;22.862;2022-08-19T10:43:52;7.95;;;7.13;;
24833;SDS011;12914;43.702;22.862;2022-08-19T10:46:20;7.88;;;7.13;;
24833;SDS011;12914;43.702;22.862;2022-08-19T10:48:47;12.07;;;7.85;;
24833;SDS011;12914;43.702;22.862;2022-08-19T10:51:13;8.27;;;7.32;;
24833;SDS011;12914;43.702;22.862;2022-08-19T10:53:57;8.65;;;7.50;;
24833;SDS011;12914;43.702;22.862;2022-08-19T10:56:24;8.23;;;7.32;;
24833;SDS011;12914;43.702;22.862;2022-08-19T10:59:08;9.85;;;7.78;;
24833;SDS011;12914;43.702;22.862;2022-08-19T11:01:34;11.82;;;7.38;;
24833;SDS011;12914;43.702;22.862;2022-08-19T11:04:01;8.82;;;7.93;;
24833;SDS011;12914;43.702;22.862;2022-08-19T11:06:28;8.18;;;7.32;;
24833;SDS011;12914;43.702;22.862;2022-08-19T11:08:55;8.15;;;7.32;;
24833;SDS011;12914;43.702;22.862;2022-08-19T11:11:20;9.13;;;7.53;;
24833;SDS011;12914;43.702;22.862;2022-08-19T11:13:47;8.77;;;7.68;;
24833;SDS011;12914;43.702;22.862;2022-08-19T11:16:16;8.85;;;7.18;;
24833;SDS011;12914;43.702;22.862;2022-08-19T11:18:44;11.30;;;6.65;;
24833;SDS011;12914;43.702;22.862;2022-08-19T11:23:41;9.60;;;7.20;;
24833;SDS011;12914;43.702;22.862;2022-08-19T11:26:08;7.25;;;6.55;;
24833;SDS011;12914;43.702;22.862;2022-08-19T11:28:34;8.23;;;6.47;;
24833;SDS011;12914;43.702;22.862;2022-08-19T11:31:00;10.63;;;6.10;;
24833;SDS011;12914;43.702;22.862;2022-08-19T11:33:28;6.80;;;6.00;;
24833;SDS011;12914;43.702;22.862;2022-08-19T11:35:57;8.30;;;6.60;;
24833;SDS011;12914;43.702;22.862;2022-08-19T11:38:25;9.18;;;6.82;;
24833;SDS011;12914;43.702;22.862;2022-08-19T11:40:55;7.28;;;6.15;;
24833;SDS011;12914;43.702;22.862;2022-08-19T11:43:24;6.35;;;5.75;;
24833;SDS011;12914;43.702;22.862;2022-08-19T11:45:52;7.05;;;6.35;;
24833;SDS011;12914;43.702;22.862;2022-08-19T11:48:18;9.23;;;6.93;;
24833;SDS011;12914;43.702;22.862;2022-08-19T11:50:51;9.27;;;7.32;;
24833;SDS011;12914;43.702;22.862;2022-08-19T11:53:19;9.02;;;6.35;;
24833;SDS011;12914;43.702;22.862;2022-08-19T11:55:45;9.27;;;6.32;;
24833;SDS011;12914;43.702;22.862;2022-08-19T11:58:12;6.68;;;6.07;;
24833;SDS011;12914;43.702;22.862;2022-08-19T12:00:40;10.55;;;7.10;;
24833;SDS011;12914;43.702;22.862;2022-08-19T12:03:06;8.48;;;6.90;;
24833;SDS011;12914;43.702;22.862;2022-08-19T12:05:32;8.57;;;6.78;;
24833;SDS011;12914;43.702;22.862;2022-08-19T12:07:58;11.85;;;6.78;;
24833;SDS011;12914;43.702;22.862;2022-08-19T12:10:24;7.00;;;6.38;;
24833;SDS011;12914;43.702;22.862;2022-08-19T12:12:50;10.40;;;6.68;;
24833;SDS011;12914;43.702;22.862;2022-08-19T12:15:15;11.02;;;6.72;;
24833;SDS011;12914;43.702;22.862;2022-08-19T12:17:41;7.93;;;6.32;;
24833;SDS011;12914;43.702;22.862;2022-08-19T12:20:08;13.50;;;6.30;;
24833;SDS011;12914;43.702;22.862;2022-08-19T12:22:38;9.00;;;6.15;;
24833;SDS011;12914;43.702;22.862;2022-08-19T12:25:06;7.25;;;6.35;;
24833;SDS011;12914;43.702;22.862;2022-08-19T12:27:32;6.93;;;6.32;;
24833;SDS011;12914;43.702;22.862;2022-08-19T12:30:00;6.57;;;5.85;;
24833;SDS011;12914;43.702;22.862;2022-08-19T12:32:26;11.20;;;6.20;;
24833;SDS011;12914;43.702;22.862;2022-08-19T12:34:52;8.93;;;6.35;;
24833;SDS011;12914;43.702;22.862;2022-08-19T12:37:18;7.13;;;6.43;;
24833;SDS011;12914;43.702;22.862;2022-08-19T12:39:43;6.50;;;5.90;;
24833;SDS011;12914;43.702;22.862;2022-08-19T12:42:10;6.22;;;5.63;;
24833;SDS011;12914;43.702;22.862;2022-08-19T12:44:38;6.38;;;5.82;;
24833;SDS011;12914;43.702;22.862;2022-08-19T12:47:06;8.68;;;6.43;;
24833;SDS011;12914;43.702;22.862;2022-08-19T12:49:32;7.65;;;6.05;;
24833;SDS011;12914;43.702;22.862;2022-08-19T12:52:05;9.25;;;6.85;;
24833;SDS011;12914;43.702;22.862;2022-08-19T12:54:33;7.63;;;6.63;;
24833;SDS011;12914;43.702;22.862;2022-08-19T12:56:59;8.63;;;6.05;;
24833;SDS011;12914;43.702;22.862;2022-08-19T12:59:25;6.93;;;6.22;;
24833;SDS011;12914;43.702;22.862;2022-08-19T13:01:51;6.70;;;5.90;;
24833;SDS011;12914;43.702;22.862;2022-08-19T13:04:17;9.18;;;5.97;;
24833;SDS011;12914;43.702;22.862;2022-08-19T13:06:42;7.15;;;6.05;;
24833;SDS011;12914;43.702;22.862;2022-08-19T13:09:08;7.35;;;5.85;;
24833;SDS011;12914;43.702;22.862;2022-08-19T13:11:35;8.38;;;5.75;;
24833;SDS011;12914;43.702;22.862;2022-08-19T13:14:02;9.20;;;6.30;;
24833;SDS011;12914;43.702;22.862;2022-08-19T13:16:29;6.68;;;5.78;;
24833;SDS011;12914;43.702;22.862;2022-08-19T13:18:55;7.70;;;6.13;;
24833;SDS011;12914;43.702;22.862;2022-08-19T13:21:24;7.93;;;6.10;;
24833;SDS011;12914;43.702;22.862;2022-08-19T13:23:52;6.43;;;5.82;;
24833;SDS011;12914;43.702;22.862;2022-08-19T13:26:19;6.20;;;5.53;;
24833;SDS011;12914;43.702;22.862;2022-08-19T13:28:45;8.23;;;5.75;;
24833;SDS011;12914;43.702;22.862;2022-08-19T13:31:31;6.05;;;5.45;;
24833;SDS011;12914;43.702;22.862;2022-08-19T13:34:18;8.70;;;5.78;;
24833;SDS011;12914;43.702;22.862;2022-08-19T13:36:51;8.80;;;5.63;;
24833;SDS011;12914;43.702;22.862;2022-08-19T13:39:18;11.45;;;5.90;;
24833;SDS011;12914;43.702;22.862;2022-08-19T13:41:45;8.73;;;5.40;;
24833;SDS011;12914;43.702;22.862;2022-08-19T13:44:13;6.97;;;5.72;;
24833;SDS011;12914;43.702;22.862;2022-08-19T13:46:40;6.65;;;5.35;;
24833;SDS011;12914;43.702;22.862;2022-08-19T13:49:12;6.90;;;5.43;;
24833;SDS011;12914;43.702;22.862;2022-08-19T13:51:40;5.93;;;5.05;;
24833;SDS011;12914;43.702;22.862;2022-08-19T13:54:06;7.55;;;5.60;;
24833;SDS011;12914;43.702;22.862;2022-08-19T13:56:33;7.55;;;5.63;;
24833;SDS011;12914;43.702;22.862;2022-08-19T13:58:59;7.72;;;5.10;;
24833;SDS011;12914;43.702;22.862;2022-08-19T14:01:25;6.07;;;5.47;;
24833;SDS011;12914;43.702;22.862;2022-08-19T14:03:51;5.65;;;5.03;;
24833;SDS011;12914;43.702;22.862;2022-08-19T14:06:17;8.32;;;5.18;;
24833;SDS011;12914;43.702;22.862;2022-08-19T14:08:43;7.40;;;4.65;;
24833;SDS011;12914;43.702;22.862;2022-08-19T14:11:09;7.13;;;5.35;;
24833;SDS011;12914;43.702;22.862;2022-08-19T14:13:35;7.28;;;5.40;;
24833;SDS011;12914;43.702;22.862;2022-08-19T14:16:05;5.90;;;4.95;;
24833;SDS011;12914;43.702;22.862;2022-08-19T14:18:32;9.45;;;5.30;;
24833;SDS011;12914;43.702;22.862;2022-08-19T14:20:58;7.40;;;6.32;;
24833;SDS011;12914;43.702;22.862;2022-08-19T14:23:23;6.00;;;5.40;;
24833;SDS011;12914;43.702;22.862;2022-08-19T14:25:49;8.00;;;5.35;;
24833;SDS011;12914;43.702;22.862;2022-08-19T14:28:14;6.28;;;5.60;;
24833;SDS011;12914;43.702;22.862;2022-08-19T14:30:41;10.98;;;6.03;;
24833;SDS011;12914;43.702;22.862;2022-08-19T14:33:09;7.10;;;5.10;;
24833;SDS011;12914;43.702;22.862;2022-08-19T14:35:35;5.55;;;5.05;;
24833;SDS011;12914;43.702;22.862;2022-08-19T14:38:02;9.30;;;5.22;;
24833;SDS011;12914;43.702;22.862;2022-08-19T14:40:30;7.93;;;4.95;;
24833;SDS011;12914;43.702;22.862;2022-08-19T14:42:59;7.15;;;4.78;;
24833;SDS011;12914;43.702;22.862;2022-08-19T14:45:29;5.45;;;4.95;;
24833;SDS011;12914;43.702;22.862;2022-08-19T14:47:59;5.85;;;4.65;;
24833;SDS011;12914;43.702;22.862;2022-08-19T14:50:26;6.38;;;4.85;;
24833;SDS011;12914;43.702;22.862;2022-08-19T14:52:59;7.57;;;4.75;;
24833;SDS011;12914;43.702;22.862;2022-08-19T14:55:30;6.05;;;5.45;;
24833;SDS011;12914;43.702;22.862;2022-08-19T14:57:56;11.60;;;5.20;;